createdAt,value
2024-03-25T00:00:51.256Z,12.50
2024-03-25T00:03:43.794Z,15.60
2024-03-25T00:06:14.333Z,16.50
2024-03-25T00:08:45.785Z,18.10
2024-03-25T00:11:16.414Z,15.20
2024-03-25T00:13:48.374Z,15.60
2024-03-25T00:16:18.811Z,12.80
2024-03-25T00:18:50.346Z,15.90
2024-03-25T00:21:20.977Z,17.60
2024-03-25T00:23:52.536Z,17.10
2024-03-25T00:26:24.773Z,15.60
2024-03-25T00:28:56.261Z,24.30
2024-03-25T00:31:26.885Z,14.70
2024-03-25T00:33:58.333Z,33.20
2024-03-25T00:36:29.064Z,37.00
2024-03-25T00:39:00.515Z,18.10
2024-03-25T00:41:31.046Z,13.70
2024-03-25T00:44:02.611Z,12.50
2024-03-25T00:46:33.334Z,16.00
2024-03-25T00:49:04.987Z,18.00
2024-03-25T00:51:35.517Z,12.90
2024-03-25T00:54:07.065Z,18.00
2024-03-25T00:56:37.702Z,15.30
2024-03-25T00:59:09.422Z,16.50
2024-03-25T01:01:39.882Z,15.30
2024-03-25T01:04:11.748Z,16.20
2024-03-25T01:06:42.388Z,14.70
2024-03-25T01:09:14.335Z,15.60
2024-03-25T01:11:44.870Z,19.40
2024-03-25T01:14:16.425Z,18.40
2024-03-25T01:16:47.055Z,17.50
2024-03-25T01:19:18.507Z,14.20
2024-03-25T01:21:49.135Z,14.70
2024-03-25T01:24:21.302Z,11.00
2024-03-25T01:26:52.438Z,15.00
2024-03-25T01:29:24.105Z,16.90
2024-03-25T01:31:54.936Z,18.80
2024-03-25T01:34:27.310Z,13.40
2024-03-25T01:36:58.460Z,15.50
2024-03-25T01:39:30.199Z,14.10
2024-03-25T01:42:00.637Z,14.50
2024-03-25T01:44:32.182Z,13.80
2024-03-25T01:47:02.606Z,11.90
2024-03-25T01:49:34.265Z,9.30
2024-03-25T01:52:05.100Z,8.50
2024-03-25T01:54:36.857Z,9.00
2024-03-25T01:57:07.280Z,9.90
2024-03-25T01:59:39.035Z,9.70
2024-03-25T02:02:10.184Z,10.30
2024-03-25T02:04:41.637Z,10.20
2024-03-25T02:07:12.374Z,11.10
2024-03-25T02:09:43.300Z,11.10
2024-03-25T02:12:13.730Z,13.10
2024-03-25T02:14:45.392Z,9.20
2024-03-25T02:17:15.713Z,10.20
2024-03-25T02:19:47.470Z,11.00
2024-03-25T02:22:17.997Z,15.00
2024-03-25T02:24:51.888Z,11.70
2024-03-25T02:27:22.028Z,9.00
2024-03-25T02:29:53.987Z,12.70
2024-03-25T02:32:24.208Z,10.70
2024-03-25T02:34:56.369Z,7.90
2024-03-25T02:37:27.204Z,8.30
2024-03-25T02:40:00.364Z,7.20
2024-03-25T02:42:30.723Z,8.40
2024-03-25T02:45:02.390Z,7.80
2024-03-25T02:47:33.016Z,7.00
2024-03-25T02:50:05.186Z,7.70
2024-03-25T02:52:35.402Z,8.40
2024-03-25T02:55:07.670Z,7.90
2024-03-25T02:57:38.005Z,9.20
2024-03-25T03:00:10.672Z,7.80
2024-03-25T03:02:41.406Z,8.00
2024-03-25T03:05:13.887Z,8.00
2024-03-25T03:07:44.303Z,7.50
2024-03-25T03:10:17.217Z,7.10
2024-03-25T03:12:47.618Z,7.30
2024-03-25T03:15:19.474Z,10.80
2024-03-25T03:17:50.006Z,13.70
2024-03-25T03:20:22.072Z,11.70
2024-03-25T03:22:52.392Z,11.00
2024-03-25T03:25:24.046Z,11.50
2024-03-25T03:27:54.574Z,12.90
2024-03-25T03:30:26.232Z,13.30
2024-03-25T03:32:56.867Z,9.20
2024-03-25T03:35:28.517Z,10.90
2024-03-25T03:37:59.177Z,14.80
2024-03-25T03:40:31.007Z,11.50
2024-03-25T03:43:01.351Z,11.40
2024-03-25T03:45:34.753Z,11.50
2024-03-25T03:48:05.505Z,9.10
2024-03-25T03:50:37.522Z,9.90
2024-03-25T03:53:07.852Z,13.30
2024-03-25T03:55:39.603Z,10.00
2024-03-25T03:58:10.136Z,11.90
2024-03-25T04:00:41.692Z,11.00
2024-03-25T04:03:12.213Z,15.90
2024-03-25T04:05:43.876Z,9.80
2024-03-25T04:08:14.501Z,15.70
2024-03-25T04:10:46.468Z,17.10
2024-03-25T04:13:16.791Z,17.90
2024-03-25T04:15:48.309Z,21.30
2024-03-25T04:18:18.980Z,24.20
2024-03-25T04:20:50.424Z,24.80
2024-03-25T04:23:20.948Z,19.10
2024-03-25T04:25:52.509Z,14.20
2024-03-25T04:28:24.039Z,14.00
2024-03-25T04:30:55.921Z,9.20
2024-03-25T04:33:26.459Z,8.40
2024-03-25T04:35:58.004Z,7.70
2024-03-25T04:38:28.941Z,9.00
2024-03-25T04:41:02.566Z,9.40
2024-03-25T04:43:32.864Z,11.20
2024-03-25T04:46:05.338Z,9.70
2024-03-25T04:48:35.761Z,8.40
2024-03-25T04:51:09.546Z,8.60
2024-03-25T04:53:43.184Z,6.70
2024-03-25T04:56:13.703Z,8.20
2024-03-25T04:58:45.146Z,7.40
2024-03-25T05:01:15.883Z,9.50
2024-03-25T05:03:47.639Z,9.30
2024-03-25T05:06:18.073Z,9.70
2024-03-25T05:08:49.617Z,8.70
2024-03-25T05:11:20.972Z,10.00
2024-03-25T05:13:52.833Z,10.60
2024-03-25T05:16:23.146Z,11.70
2024-03-25T05:18:55.106Z,10.50
2024-03-25T05:21:25.543Z,7.90
2024-03-25T05:23:57.296Z,8.20
2024-03-25T05:26:27.716Z,9.30
2024-03-25T05:28:59.496Z,8.30
2024-03-25T05:31:29.903Z,7.20
2024-03-25T05:34:03.961Z,7.20
2024-03-25T05:36:34.657Z,7.00
2024-03-25T05:39:06.294Z,8.00
2024-03-25T05:41:37.039Z,8.10
2024-03-25T05:44:08.701Z,9.90
2024-03-25T05:46:40.315Z,9.80
2024-03-25T05:49:11.815Z,16.90
2024-03-25T05:51:42.626Z,16.10
2024-03-25T05:54:14.082Z,10.50
2024-03-25T05:56:44.781Z,10.60
2024-03-25T05:59:16.477Z,8.30
2024-03-25T06:01:47.004Z,6.70
2024-03-25T06:04:18.456Z,6.50
2024-03-25T06:06:49.601Z,5.50
2024-03-25T06:09:21.040Z,5.80
2024-03-25T06:11:51.779Z,5.20
2024-03-25T06:14:23.328Z,6.00
2024-03-25T06:16:54.173Z,6.80
2024-03-25T06:19:26.744Z,8.20
2024-03-25T06:21:57.276Z,7.20
2024-03-25T06:24:28.923Z,6.00
2024-03-25T06:26:59.353Z,3.20
2024-03-25T06:29:31.993Z,4.50
2024-03-25T06:32:21.843Z,3.70
2024-03-25T06:34:54.487Z,4.10
2024-03-25T06:37:25.012Z,3.80
2024-03-25T06:39:56.673Z,3.90
2024-03-25T06:42:27.405Z,3.70
2024-03-25T06:45:00.113Z,3.70
2024-03-25T06:47:30.533Z,3.70
2024-03-25T06:50:02.634Z,4.00
2024-03-25T06:52:33.116Z,4.50
2024-03-25T06:55:05.327Z,3.70
2024-03-25T06:57:35.692Z,5.20
2024-03-25T07:00:14.215Z,3.90
2024-03-25T07:02:46.280Z,5.00
2024-03-25T07:05:16.706Z,3.90
2024-03-25T07:07:48.556Z,3.90
2024-03-25T07:10:21.364Z,5.30
2024-03-25T07:12:53.000Z,5.10
2024-03-25T07:15:23.335Z,3.70
2024-03-25T07:17:54.990Z,4.00
2024-03-25T07:20:25.877Z,4.20
2024-03-25T07:22:58.202Z,3.50
2024-03-25T07:25:28.715Z,3.90
2024-03-25T07:28:00.478Z,4.90
2024-03-25T07:30:30.860Z,3.50
2024-03-25T07:33:02.759Z,3.10
2024-03-25T07:35:33.398Z,2.90
2024-03-25T07:38:05.157Z,3.00
2024-03-25T07:40:35.677Z,2.50
2024-03-25T07:43:07.842Z,4.20
2024-03-25T07:45:38.791Z,3.10
2024-03-25T07:48:10.543Z,3.00
2024-03-25T07:50:41.511Z,3.50
2024-03-25T07:53:13.890Z,3.90
2024-03-25T07:55:44.412Z,4.50
2024-03-25T07:58:16.037Z,3.50
2024-03-25T08:00:46.668Z,3.00
2024-03-25T08:03:18.548Z,3.50
2024-03-25T08:05:48.946Z,2.80
2024-03-25T08:08:20.812Z,2.10
2024-03-25T08:10:51.546Z,2.80
2024-03-25T08:13:23.482Z,2.50
2024-03-25T08:15:53.930Z,3.00
2024-03-25T08:18:25.836Z,2.90
2024-03-25T08:20:57.095Z,3.20
2024-03-25T08:23:29.345Z,3.70
2024-03-25T08:25:59.748Z,3.00
2024-03-25T08:28:31.403Z,3.50
2024-03-25T08:31:01.965Z,3.50
2024-03-25T08:33:33.478Z,4.20
2024-03-25T08:36:04.915Z,4.40
2024-03-25T08:38:36.567Z,4.80
2024-03-25T08:41:06.995Z,3.80
2024-03-25T08:43:38.656Z,3.50
2024-03-25T08:46:08.978Z,3.30
2024-03-25T08:48:40.641Z,5.30
2024-03-25T08:51:11.265Z,4.40
2024-03-25T08:53:43.223Z,5.60
2024-03-25T08:56:13.749Z,3.30
2024-03-25T08:58:45.388Z,3.80
2024-03-25T09:01:17.480Z,4.20
2024-03-25T09:03:55.123Z,4.40
2024-03-25T09:06:29.075Z,3.10
2024-03-25T09:09:18.043Z,4.80
2024-03-25T09:11:49.999Z,6.50
2024-03-25T09:14:20.532Z,3.80
2024-03-25T09:16:52.188Z,3.70
2024-03-25T09:19:23.467Z,4.50
2024-03-25T09:21:56.120Z,4.00
2024-03-25T09:24:26.838Z,4.00
2024-03-25T09:26:58.540Z,3.70
2024-03-25T09:29:28.828Z,2.70
2024-03-25T09:32:00.583Z,2.70
2024-03-25T09:34:31.235Z,2.40
2024-03-25T09:37:02.764Z,2.40
2024-03-25T09:39:33.297Z,2.70
2024-03-25T09:42:04.741Z,2.60
2024-03-25T09:44:35.293Z,3.60
2024-03-25T09:47:06.923Z,2.50
2024-03-25T09:49:37.352Z,1.50
2024-03-25T09:52:09.657Z,2.40
2024-03-25T09:54:40.146Z,2.20
2024-03-25T09:57:11.736Z,3.60
2024-03-25T09:59:42.640Z,4.20
2024-03-25T10:02:14.136Z,3.10
2024-03-25T10:04:47.223Z,3.20
2024-03-25T10:07:24.069Z,2.70
2024-03-25T10:09:57.522Z,3.30
2024-03-25T10:12:28.292Z,2.90
2024-03-25T10:15:00.252Z,4.40
2024-03-25T10:17:35.461Z,3.00
2024-03-25T10:20:10.971Z,3.70
2024-03-25T10:22:44.007Z,3.90
2024-03-25T10:25:30.319Z,3.70
2024-03-25T10:28:02.803Z,5.40
2024-03-25T10:30:33.178Z,4.80
2024-03-25T10:33:07.656Z,3.40
2024-03-25T10:35:41.121Z,4.10
2024-03-25T10:38:12.260Z,5.30
2024-03-25T10:40:45.236Z,3.70
2024-03-25T10:43:15.848Z,3.70
2024-03-25T10:45:49.022Z,3.50
2024-03-25T10:48:35.707Z,4.30
2024-03-25T10:51:08.199Z,3.10
2024-03-25T10:53:38.704Z,2.70
2024-03-25T10:56:10.775Z,4.30
2024-03-25T10:58:41.289Z,4.30
2024-03-25T11:01:13.057Z,5.20
2024-03-25T11:03:43.472Z,3.90
2024-03-25T11:06:16.463Z,4.30
2024-03-25T11:08:56.649Z,4.50
2024-03-25T11:11:34.930Z,4.00
2024-03-25T11:14:17.010Z,3.90
2024-03-25T11:16:55.214Z,4.10
2024-03-25T11:19:27.712Z,3.70
2024-03-25T11:22:16.465Z,4.70
2024-03-25T11:24:48.631Z,5.10
2024-03-25T11:27:23.471Z,5.70
2024-03-25T11:29:55.226Z,4.30
2024-03-25T11:32:25.719Z,4.20
2024-03-25T11:34:57.510Z,4.60
2024-03-25T11:37:28.347Z,5.60
2024-03-25T11:40:10.081Z,6.60
2024-03-25T11:42:42.820Z,4.00
2024-03-25T11:45:22.463Z,5.10
2024-03-25T11:47:54.939Z,4.50
2024-03-25T11:50:26.178Z,4.10
2024-03-25T11:52:57.728Z,4.70
2024-03-25T11:55:28.577Z,4.80
2024-03-25T11:58:00.320Z,4.30
2024-03-25T12:00:30.963Z,4.20
2024-03-25T12:03:04.659Z,4.50
2024-03-25T12:05:34.888Z,3.40
2024-03-25T12:08:09.806Z,4.30
2024-03-25T12:11:01.230Z,4.50
2024-03-25T12:13:33.190Z,5.20
2024-03-25T12:16:04.986Z,4.00
2024-03-25T12:18:42.574Z,3.60
2024-03-25T12:21:14.297Z,6.40
2024-03-25T12:23:44.630Z,4.40
2024-03-25T12:26:16.898Z,4.30
2024-03-25T12:28:47.215Z,4.10
2024-03-25T12:31:19.378Z,4.40
2024-03-25T12:33:49.617Z,4.60
2024-03-25T12:36:22.388Z,6.30
2024-03-25T12:38:58.760Z,6.00
2024-03-25T12:41:30.406Z,8.10
2024-03-25T12:44:01.150Z,6.50
2024-03-25T12:46:33.786Z,8.10
2024-03-25T12:49:04.351Z,8.10
2024-03-25T12:51:36.416Z,8.20
2024-03-25T12:54:07.147Z,9.00
2024-03-25T12:56:38.800Z,6.70
2024-03-25T12:59:09.230Z,5.10
2024-03-25T13:01:41.968Z,3.60
2024-03-25T13:04:12.439Z,4.40
2024-03-25T13:06:44.505Z,3.50
2024-03-25T13:09:14.924Z,3.90
2024-03-25T13:11:46.782Z,4.30
2024-03-25T13:14:17.656Z,4.20
2024-03-25T13:16:49.887Z,3.90
2024-03-25T13:19:20.312Z,11.20
2024-03-25T13:21:52.086Z,5.70
2024-03-25T13:24:22.507Z,5.00
2024-03-25T13:26:54.051Z,4.60
2024-03-25T13:29:24.591Z,5.60
2024-03-25T13:32:02.763Z,5.20
2024-03-25T13:34:38.021Z,4.80
2024-03-25T13:37:08.352Z,6.00
2024-03-25T13:39:40.012Z,4.70
2024-03-25T13:42:10.334Z,7.10
2024-03-25T13:44:42.085Z,4.60
2024-03-25T13:47:12.623Z,4.90
2024-03-25T13:49:44.454Z,6.00
2024-03-25T13:52:14.795Z,4.60
2024-03-25T13:54:46.583Z,5.60
2024-03-25T13:57:16.883Z,5.70
2024-03-25T13:59:48.583Z,4.80
2024-03-25T14:02:19.385Z,5.00
2024-03-25T14:04:51.029Z,7.00
2024-03-25T14:07:21.456Z,5.70
2024-03-25T14:09:53.216Z,5.60
2024-03-25T14:12:25.027Z,5.70
2024-03-25T14:14:57.034Z,5.60
2024-03-25T14:17:27.494Z,5.80
2024-03-25T14:19:59.423Z,5.40
2024-03-25T14:22:29.863Z,7.50
2024-03-25T14:25:01.711Z,5.60
2024-03-25T14:27:32.643Z,5.40
2024-03-25T14:30:05.123Z,5.70
2024-03-25T14:32:35.852Z,5.80
2024-03-25T14:35:08.086Z,6.30
2024-03-25T14:37:38.652Z,5.60
2024-03-25T14:40:10.890Z,5.80
2024-03-25T14:42:41.651Z,6.30
2024-03-25T14:45:13.314Z,5.30
2024-03-25T14:47:43.738Z,5.40
2024-03-25T14:50:15.590Z,5.30
2024-03-25T14:52:47.868Z,5.00
2024-03-25T14:55:19.542Z,6.60
2024-03-25T14:57:49.955Z,5.80
2024-03-25T15:00:22.067Z,5.50
2024-03-25T15:02:52.760Z,6.60
2024-03-25T15:05:24.324Z,7.70
2024-03-25T15:07:54.778Z,5.90
2024-03-25T15:10:27.820Z,7.90
2024-03-25T15:12:58.139Z,6.50
2024-03-25T15:15:32.261Z,5.90
2024-03-25T15:18:02.692Z,6.80
2024-03-25T15:20:34.488Z,52.00
2024-03-25T15:23:05.382Z,50.10
2024-03-25T15:25:37.027Z,159.20
2024-03-25T15:28:07.579Z,148.70
2024-03-25T15:30:39.406Z,31.10
2024-03-25T15:33:09.844Z,17.00
2024-03-25T15:35:41.697Z,12.30
2024-03-25T15:38:12.658Z,9.50
2024-03-25T15:40:47.392Z,8.80
2024-03-25T15:43:20.179Z,7.80
2024-03-25T15:45:57.484Z,9.40
2024-03-25T15:48:29.505Z,11.30
2024-03-25T15:50:59.918Z,9.00
2024-03-25T15:53:31.581Z,8.10
2024-03-25T15:56:02.516Z,7.90
2024-03-25T15:58:34.574Z,9.10
2024-03-25T16:01:05.113Z,9.30
2024-03-25T16:03:36.668Z,8.30
2024-03-25T16:06:07.524Z,11.00
2024-03-25T16:08:38.945Z,14.00
2024-03-25T16:11:17.030Z,9.40
2024-03-25T16:13:50.374Z,11.80
2024-03-25T16:16:20.909Z,11.80
2024-03-25T16:18:52.456Z,11.10
2024-03-25T16:21:25.009Z,10.40
2024-03-25T16:23:56.916Z,11.00
2024-03-25T16:26:27.498Z,9.80
2024-03-25T16:28:59.082Z,10.50
2024-03-25T16:31:29.490Z,10.10
2024-03-25T16:34:01.619Z,11.20
2024-03-25T16:36:32.066Z,9.70
2024-03-25T16:39:04.967Z,10.20
2024-03-25T16:41:35.412Z,10.90
2024-03-25T16:44:07.237Z,14.40
2024-03-25T16:46:38.840Z,12.60
2024-03-25T16:49:10.517Z,8.40
2024-03-25T16:51:40.978Z,8.90
2024-03-25T16:54:12.772Z,7.50
2024-03-25T16:56:43.531Z,9.60
2024-03-25T16:59:15.273Z,10.20
2024-03-25T17:01:45.887Z,10.00
2024-03-25T17:04:17.974Z,9.20
2024-03-25T17:06:48.556Z,10.20
2024-03-25T17:09:20.618Z,12.20
2024-03-25T17:11:52.791Z,9.40
2024-03-25T17:14:24.660Z,20.30
2024-03-25T17:16:55.179Z,10.80
2024-03-25T17:19:27.149Z,9.30
2024-03-25T17:21:57.360Z,12.10
2024-03-25T17:24:28.915Z,10.80
2024-03-25T17:26:59.337Z,9.90
2024-03-25T17:29:31.232Z,12.40
2024-03-25T17:32:01.922Z,15.20
2024-03-25T17:34:33.649Z,13.70
2024-03-25T17:37:04.012Z,17.70
2024-03-25T17:39:36.482Z,10.80
2024-03-25T17:42:06.703Z,10.00
2024-03-25T17:44:40.433Z,9.20
2024-03-25T17:47:10.835Z,13.40
2024-03-25T17:49:42.492Z,16.20
2024-03-25T17:52:13.473Z,14.10
2024-03-25T17:54:45.187Z,17.00
2024-03-25T17:57:17.761Z,18.60
2024-03-25T17:59:50.987Z,14.20
2024-03-25T18:02:21.477Z,18.10
2024-03-25T18:04:53.131Z,18.60
2024-03-25T18:07:23.659Z,22.80
2024-03-25T18:09:55.419Z,15.50
2024-03-25T18:12:26.658Z,14.30
2024-03-25T18:14:58.319Z,15.70
2024-03-25T18:17:28.867Z,15.20
2024-03-25T18:20:00.517Z,16.20
2024-03-25T18:22:31.138Z,15.20
2024-03-25T18:25:02.800Z,14.40
2024-03-25T18:27:33.218Z,14.00
2024-03-25T18:30:05.377Z,17.10
2024-03-25T18:32:35.890Z,15.70
2024-03-25T18:35:08.179Z,29.10
2024-03-25T18:37:38.706Z,27.90
2024-03-25T18:40:14.576Z,23.20
2024-03-25T18:42:46.217Z,20.10
2024-03-25T18:45:16.675Z,17.80
2024-03-25T18:47:48.516Z,18.10
2024-03-25T18:50:18.838Z,19.00
2024-03-25T18:52:50.991Z,22.00
2024-03-25T18:55:21.221Z,22.50
2024-03-25T18:57:52.867Z,19.50
2024-03-25T19:00:24.304Z,23.30
2024-03-25T19:02:55.874Z,21.50
2024-03-25T19:05:26.312Z,31.40
2024-03-25T19:07:58.370Z,55.10
2024-03-25T19:10:28.501Z,107.50
2024-03-25T19:13:01.225Z,124.60
2024-03-25T19:15:31.490Z,98.60
2024-03-25T19:18:04.033Z,56.30
2024-03-25T19:20:34.472Z,35.60
2024-03-25T19:23:06.437Z,38.60
2024-03-25T19:25:36.979Z,29.60
2024-03-25T19:28:08.746Z,30.60
2024-03-25T19:30:39.067Z,28.20
2024-03-25T19:33:10.825Z,27.20
2024-03-25T19:35:41.143Z,31.80
2024-03-25T19:38:12.802Z,28.40
2024-03-25T19:40:43.123Z,24.10
2024-03-25T19:43:14.876Z,24.10
2024-03-25T19:45:47.151Z,29.00
2024-03-25T19:48:20.221Z,23.60
2024-03-25T19:50:50.771Z,26.60
2024-03-25T19:53:24.326Z,37.60
2024-03-25T19:56:01.372Z,47.20
2024-03-25T19:58:32.899Z,41.90
2024-03-25T20:01:14.216Z,30.20
2024-03-25T20:03:47.272Z,29.50
2024-03-25T20:06:17.996Z,33.60
2024-03-25T20:08:49.757Z,31.70
2024-03-25T20:11:20.185Z,36.20
2024-03-25T20:13:52.714Z,35.00
2024-03-25T20:16:23.501Z,34.80
2024-03-25T20:18:54.942Z,34.30
2024-03-25T20:21:25.484Z,33.80
2024-03-25T20:23:57.027Z,36.80
2024-03-25T20:26:27.659Z,43.70
2024-03-25T20:28:59.107Z,40.40
2024-03-25T20:31:29.742Z,49.60
2024-03-25T20:34:01.505Z,53.90
2024-03-25T20:36:32.023Z,51.20
2024-03-25T20:39:03.986Z,42.50
2024-03-25T20:41:34.471Z,41.70
2024-03-25T20:44:06.787Z,35.40
2024-03-25T20:46:37.939Z,41.70
2024-03-25T20:49:09.689Z,45.30
2024-03-25T20:51:40.336Z,39.90
2024-03-25T20:54:11.866Z,41.00
2024-03-25T20:56:42.298Z,50.60
2024-03-25T20:59:14.309Z,45.40
2024-03-25T21:01:45.113Z,34.40
2024-03-25T21:04:17.566Z,33.90
2024-03-25T21:06:47.785Z,27.70
2024-03-25T21:09:19.773Z,26.80
2024-03-25T21:11:49.982Z,21.10
2024-03-25T21:14:21.940Z,19.30
2024-03-25T21:16:52.374Z,20.80
2024-03-25T21:19:24.224Z,19.20
2024-03-25T21:21:54.546Z,22.80
2024-03-25T21:24:26.413Z,20.40
2024-03-25T21:26:56.626Z,27.40
2024-03-25T21:29:28.498Z,36.10
2024-03-25T21:31:58.722Z,34.80
2024-03-25T21:34:33.229Z,43.30
2024-03-25T21:37:06.639Z,51.90
2024-03-25T21:39:37.153Z,46.40
2024-03-25T21:42:08.811Z,60.30
2024-03-25T21:44:39.558Z,58.70
2024-03-25T21:47:11.212Z,46.40
2024-03-25T21:49:41.624Z,43.00
2024-03-25T21:52:13.995Z,49.10
2024-03-25T21:54:44.628Z,46.90
2024-03-25T21:57:16.281Z,47.70
2024-03-25T21:59:47.121Z,53.10
2024-03-25T22:02:19.426Z,50.50
2024-03-25T22:04:50.017Z,43.10
2024-03-25T22:07:21.671Z,43.30
2024-03-25T22:09:52.097Z,55.00
2024-03-25T22:12:23.857Z,45.20
2024-03-25T22:14:54.388Z,49.40
2024-03-25T22:17:25.944Z,40.10
2024-03-25T22:19:56.365Z,32.00
2024-03-25T22:22:28.119Z,32.80
2024-03-25T22:24:58.445Z,33.30
2024-03-25T22:27:30.195Z,31.50
2024-03-25T22:30:00.831Z,47.00
2024-03-25T22:32:32.666Z,46.30
2024-03-25T22:35:03.122Z,50.00
2024-03-25T22:37:40.234Z,54.10
2024-03-25T22:40:13.702Z,67.30
2024-03-25T22:42:46.481Z,34.30
2024-03-25T22:45:18.030Z,26.30
2024-03-25T22:47:48.587Z,23.40
2024-03-25T22:50:20.737Z,22.00
2024-03-25T22:52:51.253Z,30.80
2024-03-25T22:55:22.911Z,25.60
2024-03-25T22:57:53.151Z,25.30
2024-03-25T23:00:24.995Z,25.50
2024-03-25T23:02:55.419Z,22.60
2024-03-25T23:05:27.582Z,20.50
2024-03-25T23:07:58.035Z,19.10
2024-03-25T23:10:29.769Z,31.50
2024-03-25T23:13:00.197Z,25.20
2024-03-25T23:15:31.853Z,28.40
2024-03-25T23:18:02.698Z,24.80
2024-03-25T23:20:41.575Z,29.00
2024-03-25T23:23:13.992Z,28.80
2024-03-25T23:25:45.537Z,25.40
2024-03-25T23:28:17.096Z,27.90
2024-03-25T23:30:47.615Z,32.30
2024-03-25T23:33:19.285Z,27.60
2024-03-25T23:35:50.214Z,25.00
2024-03-25T23:38:21.687Z,27.30
2024-03-25T23:40:52.291Z,40.80
2024-03-25T23:43:23.748Z,48.20
2024-03-25T23:45:57.552Z,41.70
2024-03-25T23:48:29.941Z,43.10
2024-03-25T23:51:00.563Z,43.70
2024-03-25T23:53:32.518Z,36.50
2024-03-25T23:56:03.050Z,40.00
2024-03-25T23:58:34.689Z,42.00
